sensor_id;sensor_type;location;lat;lon;timestamp;P1;durP1;ratioP1;P2;durP2;ratioP2
13028;SDS011;6581;42.662;23.402;2022-11-13T00:00:28;7.90;;;6.75;;
13028;SDS011;6581;42.662;23.402;2022-11-13T00:03:14;8.60;;;7.17;;
13028;SDS011;6581;42.662;23.402;2022-11-13T00:06:01;8.70;;;7.20;;
13028;SDS011;6581;42.662;23.402;2022-11-13T00:08:47;9.50;;;7.50;;
13028;SDS011;6581;42.662;23.402;2022-11-13T00:11:32;9.10;;;7.63;;
13028;SDS011;6581;42.662;23.402;2022-11-13T00:14:18;8.23;;;7.30;;
13028;SDS011;6581;42.662;23.402;2022-11-13T00:17:04;8.50;;;7.53;;
13028;SDS011;6581;42.662;23.402;2022-11-13T00:19:50;8.55;;;7.65;;
13028;SDS011;6581;42.662;23.402;2022-11-13T00:22:37;8.52;;;7.25;;
13028;SDS011;6581;42.662;23.402;2022-11-13T00:25:23;10.02;;;7.82;;
13028;SDS011;6581;42.662;23.402;2022-11-13T00:28:09;9.30;;;7.43;;
13028;SDS011;6581;42.662;23.402;2022-11-13T00:30:57;10.90;;;7.70;;
13028;SDS011;6581;42.662;23.402;2022-11-13T00:33:43;9.38;;;8.13;;
13028;SDS011;6581;42.662;23.402;2022-11-13T00:36:29;8.27;;;7.28;;
13028;SDS011;6581;42.662;23.402;2022-11-13T00:39:16;9.10;;;8.00;;
13028;SDS011;6581;42.662;23.402;2022-11-13T00:42:02;9.93;;;8.38;;
13028;SDS011;6581;42.662;23.402;2022-11-13T00:44:48;10.18;;;7.80;;
13028;SDS011;6581;42.662;23.402;2022-11-13T00:47:33;11.27;;;8.05;;
13028;SDS011;6581;42.662;23.402;2022-11-13T00:50:19;8.73;;;7.55;;
13028;SDS011;6581;42.662;23.402;2022-11-13T00:53:04;9.57;;;7.97;;
13028;SDS011;6581;42.662;23.402;2022-11-13T00:55:51;8.70;;;7.78;;
13028;SDS011;6581;42.662;23.402;2022-11-13T00:58:37;8.73;;;7.63;;
13028;SDS011;6581;42.662;23.402;2022-11-13T01:01:23;9.05;;;8.15;;
13028;SDS011;6581;42.662;23.402;2022-11-13T01:04:08;10.30;;;8.90;;
13028;SDS011;6581;42.662;23.402;2022-11-13T01:06:54;10.47;;;8.50;;
13028;SDS011;6581;42.662;23.402;2022-11-13T01:09:40;10.33;;;9.23;;
13028;SDS011;6581;42.662;23.402;2022-11-13T01:12:27;11.17;;;9.63;;
13028;SDS011;6581;42.662;23.402;2022-11-13T01:15:12;10.60;;;9.50;;
13028;SDS011;6581;42.662;23.402;2022-11-13T01:17:58;11.57;;;10.27;;
13028;SDS011;6581;42.662;23.402;2022-11-13T01:20:43;11.87;;;9.67;;
13028;SDS011;6581;42.662;23.402;2022-11-13T01:23:29;10.07;;;9.07;;
13028;SDS011;6581;42.662;23.402;2022-11-13T01:26:16;12.07;;;8.80;;
13028;SDS011;6581;42.662;23.402;2022-11-13T01:29:04;9.40;;;8.40;;
13028;SDS011;6581;42.662;23.402;2022-11-13T01:31:50;9.77;;;8.53;;
13028;SDS011;6581;42.662;23.402;2022-11-13T01:34:36;10.47;;;8.17;;
13028;SDS011;6581;42.662;23.402;2022-11-13T01:37:22;8.80;;;7.80;;
13028;SDS011;6581;42.662;23.402;2022-11-13T01:40:08;10.17;;;8.37;;
13028;SDS011;6581;42.662;23.402;2022-11-13T01:42:56;9.40;;;8.17;;
13028;SDS011;6581;42.662;23.402;2022-11-13T01:48:59;10.23;;;8.07;;
13028;SDS011;6581;42.662;23.402;2022-11-13T01:51:49;8.83;;;7.93;;
13028;SDS011;6581;42.662;23.402;2022-11-13T01:54:40;9.53;;;8.47;;
13028;SDS011;6581;42.662;23.402;2022-11-13T01:57:29;10.27;;;8.33;;
13028;SDS011;6581;42.662;23.402;2022-11-13T02:00:15;9.73;;;8.50;;
13028;SDS011;6581;42.662;23.402;2022-11-13T02:03:02;10.90;;;8.90;;
13028;SDS011;6581;42.662;23.402;2022-11-13T02:05:48;9.63;;;8.40;;
13028;SDS011;6581;42.662;23.402;2022-11-13T02:08:42;10.30;;;8.10;;
13028;SDS011;6581;42.662;23.402;2022-11-13T02:11:29;10.23;;;8.67;;
13028;SDS011;6581;42.662;23.402;2022-11-13T02:14:14;9.77;;;8.52;;
13028;SDS011;6581;42.662;23.402;2022-11-13T02:17:03;9.93;;;8.37;;
13028;SDS011;6581;42.662;23.402;2022-11-13T02:19:54;9.63;;;8.63;;
13028;SDS011;6581;42.662;23.402;2022-11-13T02:22:43;10.23;;;8.27;;
13028;SDS011;6581;42.662;23.402;2022-11-13T02:25:37;10.63;;;9.27;;
13028;SDS011;6581;42.662;23.402;2022-11-13T02:28:24;10.70;;;8.73;;
13028;SDS011;6581;42.662;23.402;2022-11-13T02:31:10;9.90;;;8.47;;
13028;SDS011;6581;42.662;23.402;2022-11-13T02:33:57;10.47;;;8.40;;
13028;SDS011;6581;42.662;23.402;2022-11-13T02:36:45;11.83;;;8.33;;
13028;SDS011;6581;42.662;23.402;2022-11-13T02:39:31;11.90;;;9.02;;
13028;SDS011;6581;42.662;23.402;2022-11-13T02:42:18;8.85;;;7.95;;
13028;SDS011;6581;42.662;23.402;2022-11-13T02:45:04;9.05;;;8.15;;
13028;SDS011;6581;42.662;23.402;2022-11-13T02:47:50;9.25;;;8.32;;
13028;SDS011;6581;42.662;23.402;2022-11-13T02:50:36;8.85;;;7.75;;
13028;SDS011;6581;42.662;23.402;2022-11-13T02:53:21;9.30;;;8.10;;
13028;SDS011;6581;42.662;23.402;2022-11-13T02:56:07;11.68;;;8.38;;
13028;SDS011;6581;42.662;23.402;2022-11-13T02:59:10;8.50;;;7.60;;
13028;SDS011;6581;42.662;23.402;2022-11-13T03:02:05;9.13;;;8.07;;
13028;SDS011;6581;42.662;23.402;2022-11-13T03:04:53;9.83;;;8.53;;
13028;SDS011;6581;42.662;23.402;2022-11-13T03:07:39;11.13;;;8.43;;
13028;SDS011;6581;42.662;23.402;2022-11-13T03:10:26;9.30;;;8.27;;
13028;SDS011;6581;42.662;23.402;2022-11-13T03:13:11;9.32;;;8.13;;
13028;SDS011;6581;42.662;23.402;2022-11-13T03:16:04;11.13;;;8.63;;
13028;SDS011;6581;42.662;23.402;2022-11-13T03:18:51;11.63;;;8.68;;
13028;SDS011;6581;42.662;23.402;2022-11-13T03:21:37;10.00;;;8.63;;
13028;SDS011;6581;42.662;23.402;2022-11-13T03:24:22;9.80;;;8.38;;
13028;SDS011;6581;42.662;23.402;2022-11-13T03:27:08;10.52;;;8.30;;
13028;SDS011;6581;42.662;23.402;2022-11-13T03:29:53;13.50;;;9.18;;
13028;SDS011;6581;42.662;23.402;2022-11-13T03:32:40;9.75;;;8.63;;
13028;SDS011;6581;42.662;23.402;2022-11-13T03:35:25;11.15;;;8.85;;
13028;SDS011;6581;42.662;23.402;2022-11-13T03:38:12;9.65;;;8.25;;
13028;SDS011;6581;42.662;23.402;2022-11-13T03:40:57;9.93;;;8.50;;
13028;SDS011;6581;42.662;23.402;2022-11-13T03:44:08;10.30;;;8.10;;
13028;SDS011;6581;42.662;23.402;2022-11-13T03:46:53;9.10;;;8.20;;
13028;SDS011;6581;42.662;23.402;2022-11-13T03:49:41;10.30;;;9.20;;
13028;SDS011;6581;42.662;23.402;2022-11-13T03:52:51;9.82;;;8.50;;
13028;SDS011;6581;42.662;23.402;2022-11-13T03:55:36;10.20;;;8.80;;
13028;SDS011;6581;42.662;23.402;2022-11-13T03:58:22;11.48;;;8.77;;
13028;SDS011;6581;42.662;23.402;2022-11-13T04:01:07;10.25;;;8.55;;
13028;SDS011;6581;42.662;23.402;2022-11-13T04:03:53;9.65;;;8.68;;
13028;SDS011;6581;42.662;23.402;2022-11-13T04:06:40;10.18;;;8.70;;
13028;SDS011;6581;42.662;23.402;2022-11-13T04:09:26;10.70;;;8.88;;
13028;SDS011;6581;42.662;23.402;2022-11-13T04:12:11;11.32;;;8.10;;
13028;SDS011;6581;42.662;23.402;2022-11-13T04:14:57;11.68;;;8.82;;
13028;SDS011;6581;42.662;23.402;2022-11-13T04:17:42;12.95;;;9.18;;
13028;SDS011;6581;42.662;23.402;2022-11-13T04:20:28;12.10;;;9.38;;
13028;SDS011;6581;42.662;23.402;2022-11-13T04:23:16;11.38;;;9.40;;
13028;SDS011;6581;42.662;23.402;2022-11-13T04:26:01;11.00;;;9.80;;
13028;SDS011;6581;42.662;23.402;2022-11-13T04:28:47;12.07;;;9.75;;
13028;SDS011;6581;42.662;23.402;2022-11-13T04:31:33;14.13;;;10.25;;
13028;SDS011;6581;42.662;23.402;2022-11-13T04:34:18;12.13;;;9.90;;
13028;SDS011;6581;42.662;23.402;2022-11-13T04:37:04;12.50;;;10.52;;
13028;SDS011;6581;42.662;23.402;2022-11-13T04:39:51;15.60;;;11.73;;
13028;SDS011;6581;42.662;23.402;2022-11-13T04:42:36;16.58;;;11.88;;
13028;SDS011;6581;42.662;23.402;2022-11-13T04:45:33;15.63;;;12.30;;
13028;SDS011;6581;42.662;23.402;2022-11-13T04:48:19;16.35;;;12.27;;
13028;SDS011;6581;42.662;23.402;2022-11-13T04:51:05;14.25;;;12.20;;
13028;SDS011;6581;42.662;23.402;2022-11-13T04:53:51;17.35;;;13.82;;
13028;SDS011;6581;42.662;23.402;2022-11-13T04:56:38;19.38;;;15.35;;
13028;SDS011;6581;42.662;23.402;2022-11-13T04:59:23;17.70;;;15.00;;
13028;SDS011;6581;42.662;23.402;2022-11-13T05:02:09;18.00;;;15.63;;
13028;SDS011;6581;42.662;23.402;2022-11-13T05:04:55;16.38;;;14.32;;
13028;SDS011;6581;42.662;23.402;2022-11-13T05:07:41;19.20;;;15.40;;
13028;SDS011;6581;42.662;23.402;2022-11-13T05:10:26;18.65;;;14.57;;
13028;SDS011;6581;42.662;23.402;2022-11-13T05:13:12;18.48;;;16.42;;
13028;SDS011;6581;42.662;23.402;2022-11-13T05:15:59;20.40;;;16.20;;
13028;SDS011;6581;42.662;23.402;2022-11-13T05:18:45;19.15;;;15.48;;
13028;SDS011;6581;42.662;23.402;2022-11-13T05:21:31;33.70;;;18.95;;
13028;SDS011;6581;42.662;23.402;2022-11-13T05:24:16;20.50;;;15.90;;
13028;SDS011;6581;42.662;23.402;2022-11-13T05:27:02;20.10;;;15.48;;
13028;SDS011;6581;42.662;23.402;2022-11-13T05:29:49;18.48;;;15.77;;
13028;SDS011;6581;42.662;23.402;2022-11-13T05:32:37;21.88;;;16.05;;
13028;SDS011;6581;42.662;23.402;2022-11-13T05:35:27;18.13;;;15.70;;
13028;SDS011;6581;42.662;23.402;2022-11-13T05:38:13;18.95;;;16.08;;
13028;SDS011;6581;42.662;23.402;2022-11-13T05:41:05;19.42;;;15.63;;
13028;SDS011;6581;42.662;23.402;2022-11-13T05:43:52;20.92;;;16.35;;
13028;SDS011;6581;42.662;23.402;2022-11-13T05:46:39;19.17;;;15.82;;
13028;SDS011;6581;42.662;23.402;2022-11-13T05:49:25;19.10;;;16.45;;
13028;SDS011;6581;42.662;23.402;2022-11-13T05:52:11;19.10;;;16.25;;
13028;SDS011;6581;42.662;23.402;2022-11-13T05:54:57;21.20;;;16.58;;
13028;SDS011;6581;42.662;23.402;2022-11-13T05:57:43;21.08;;;16.08;;
13028;SDS011;6581;42.662;23.402;2022-11-13T06:00:29;18.60;;;14.98;;
13028;SDS011;6581;42.662;23.402;2022-11-13T06:03:15;20.60;;;15.88;;
13028;SDS011;6581;42.662;23.402;2022-11-13T06:06:01;23.42;;;15.80;;
13028;SDS011;6581;42.662;23.402;2022-11-13T06:08:47;28.27;;;16.80;;
13028;SDS011;6581;42.662;23.402;2022-11-13T06:11:33;27.45;;;17.25;;
13028;SDS011;6581;42.662;23.402;2022-11-13T06:14:19;32.83;;;16.50;;
13028;SDS011;6581;42.662;23.402;2022-11-13T06:17:05;53.55;;;19.38;;
13028;SDS011;6581;42.662;23.402;2022-11-13T06:19:52;36.60;;;17.13;;
13028;SDS011;6581;42.662;23.402;2022-11-13T06:22:38;26.40;;;16.80;;
13028;SDS011;6581;42.662;23.402;2022-11-13T06:25:23;21.38;;;15.27;;
13028;SDS011;6581;42.662;23.402;2022-11-13T06:28:09;20.42;;;15.85;;
13028;SDS011;6581;42.662;23.402;2022-11-13T06:30:55;20.55;;;15.32;;
13028;SDS011;6581;42.662;23.402;2022-11-13T06:33:46;18.63;;;15.10;;
13028;SDS011;6581;42.662;23.402;2022-11-13T06:36:34;18.50;;;14.57;;
13028;SDS011;6581;42.662;23.402;2022-11-13T06:39:27;20.95;;;16.17;;
13028;SDS011;6581;42.662;23.402;2022-11-13T06:42:13;19.80;;;16.08;;
13028;SDS011;6581;42.662;23.402;2022-11-13T06:44:59;21.73;;;15.27;;
13028;SDS011;6581;42.662;23.402;2022-11-13T06:47:44;20.55;;;15.43;;
13028;SDS011;6581;42.662;23.402;2022-11-13T06:50:30;19.23;;;14.43;;
13028;SDS011;6581;42.662;23.402;2022-11-13T06:53:18;19.48;;;14.13;;
13028;SDS011;6581;42.662;23.402;2022-11-13T06:56:04;21.00;;;15.18;;
13028;SDS011;6581;42.662;23.402;2022-11-13T06:58:52;19.08;;;14.73;;
13028;SDS011;6581;42.662;23.402;2022-11-13T07:01:41;21.42;;;15.88;;
13028;SDS011;6581;42.662;23.402;2022-11-13T07:04:51;20.75;;;15.05;;
13028;SDS011;6581;42.662;23.402;2022-11-13T07:08:02;19.13;;;15.57;;
13028;SDS011;6581;42.662;23.402;2022-11-13T07:10:52;18.73;;;14.70;;
13028;SDS011;6581;42.662;23.402;2022-11-13T07:13:38;19.60;;;15.40;;
13028;SDS011;6581;42.662;23.402;2022-11-13T07:16:24;22.17;;;15.77;;
13028;SDS011;6581;42.662;23.402;2022-11-13T07:19:10;22.40;;;15.30;;
13028;SDS011;6581;42.662;23.402;2022-11-13T07:21:56;20.30;;;15.45;;
13028;SDS011;6581;42.662;23.402;2022-11-13T07:24:42;20.38;;;15.77;;
13028;SDS011;6581;42.662;23.402;2022-11-13T07:27:29;19.20;;;14.88;;
13028;SDS011;6581;42.662;23.402;2022-11-13T07:30:15;26.58;;;17.20;;
13028;SDS011;6581;42.662;23.402;2022-11-13T07:33:02;22.73;;;16.40;;
13028;SDS011;6581;42.662;23.402;2022-11-13T07:35:47;20.30;;;15.98;;
13028;SDS011;6581;42.662;23.402;2022-11-13T07:41:46;18.58;;;15.00;;
13028;SDS011;6581;42.662;23.402;2022-11-13T07:44:32;18.58;;;15.27;;
13028;SDS011;6581;42.662;23.402;2022-11-13T07:47:18;18.02;;;14.57;;
13028;SDS011;6581;42.662;23.402;2022-11-13T07:50:04;20.27;;;16.10;;
13028;SDS011;6581;42.662;23.402;2022-11-13T07:52:53;20.45;;;15.88;;
13028;SDS011;6581;42.662;23.402;2022-11-13T07:55:40;22.50;;;17.20;;
13028;SDS011;6581;42.662;23.402;2022-11-13T07:58:25;21.80;;;17.00;;
13028;SDS011;6581;42.662;23.402;2022-11-13T08:01:12;23.92;;;18.02;;
13028;SDS011;6581;42.662;23.402;2022-11-13T08:03:58;22.80;;;18.25;;
13028;SDS011;6581;42.662;23.402;2022-11-13T08:06:44;20.77;;;17.17;;
13028;SDS011;6581;42.662;23.402;2022-11-13T08:09:30;19.23;;;16.27;;
13028;SDS011;6581;42.662;23.402;2022-11-13T08:12:16;19.38;;;15.95;;
13028;SDS011;6581;42.662;23.402;2022-11-13T08:15:02;20.13;;;16.80;;
13028;SDS011;6581;42.662;23.402;2022-11-13T08:17:53;20.92;;;16.85;;
13028;SDS011;6581;42.662;23.402;2022-11-13T08:20:40;19.48;;;15.10;;
13028;SDS011;6581;42.662;23.402;2022-11-13T08:23:25;20.42;;;16.95;;
13028;SDS011;6581;42.662;23.402;2022-11-13T08:26:11;18.08;;;16.02;;
13028;SDS011;6581;42.662;23.402;2022-11-13T08:28:56;24.10;;;17.60;;
13028;SDS011;6581;42.662;23.402;2022-11-13T08:31:42;20.08;;;16.95;;
13028;SDS011;6581;42.662;23.402;2022-11-13T08:34:29;22.95;;;17.65;;
13028;SDS011;6581;42.662;23.402;2022-11-13T08:37:15;18.95;;;16.95;;
13028;SDS011;6581;42.662;23.402;2022-11-13T08:40:00;21.10;;;17.52;;
13028;SDS011;6581;42.662;23.402;2022-11-13T08:42:46;21.10;;;18.60;;
13028;SDS011;6581;42.662;23.402;2022-11-13T08:45:33;21.77;;;19.27;;
13028;SDS011;6581;42.662;23.402;2022-11-13T08:48:19;21.02;;;18.05;;
13028;SDS011;6581;42.662;23.402;2022-11-13T08:51:06;20.25;;;17.52;;
13028;SDS011;6581;42.662;23.402;2022-11-13T08:53:52;21.15;;;18.13;;
13028;SDS011;6581;42.662;23.402;2022-11-13T08:56:37;20.63;;;18.05;;
13028;SDS011;6581;42.662;23.402;2022-11-13T08:59:23;20.58;;;18.15;;
13028;SDS011;6581;42.662;23.402;2022-11-13T09:02:11;20.40;;;17.73;;
13028;SDS011;6581;42.662;23.402;2022-11-13T09:04:59;19.40;;;16.90;;
13028;SDS011;6581;42.662;23.402;2022-11-13T09:07:46;21.85;;;17.38;;
13028;SDS011;6581;42.662;23.402;2022-11-13T09:10:32;24.17;;;18.60;;
13028;SDS011;6581;42.662;23.402;2022-11-13T09:13:18;21.58;;;18.40;;
13028;SDS011;6581;42.662;23.402;2022-11-13T09:16:04;19.23;;;17.20;;
13028;SDS011;6581;42.662;23.402;2022-11-13T09:18:50;20.25;;;17.02;;
13028;SDS011;6581;42.662;23.402;2022-11-13T09:21:36;19.70;;;16.83;;
13028;SDS011;6581;42.662;23.402;2022-11-13T09:24:23;21.67;;;18.08;;
13028;SDS011;6581;42.662;23.402;2022-11-13T09:27:09;20.83;;;16.90;;
13028;SDS011;6581;42.662;23.402;2022-11-13T09:29:55;18.70;;;16.70;;
13028;SDS011;6581;42.662;23.402;2022-11-13T09:32:41;19.20;;;17.20;;
13028;SDS011;6581;42.662;23.402;2022-11-13T09:35:28;21.00;;;18.35;;
13028;SDS011;6581;42.662;23.402;2022-11-13T09:38:20;20.20;;;16.77;;
13028;SDS011;6581;42.662;23.402;2022-11-13T09:41:08;27.67;;;17.67;;
13028;SDS011;6581;42.662;23.402;2022-11-13T09:43:57;20.63;;;17.77;;
13028;SDS011;6581;42.662;23.402;2022-11-13T09:46:47;19.95;;;16.83;;
13028;SDS011;6581;42.662;23.402;2022-11-13T09:49:36;22.02;;;19.05;;
13028;SDS011;6581;42.662;23.402;2022-11-13T09:52:25;24.42;;;19.00;;
13028;SDS011;6581;42.662;23.402;2022-11-13T09:55:18;21.17;;;18.90;;
13028;SDS011;6581;42.662;23.402;2022-11-13T09:58:22;20.85;;;18.35;;
13028;SDS011;6581;42.662;23.402;2022-11-13T10:01:14;21.67;;;18.65;;
13028;SDS011;6581;42.662;23.402;2022-11-13T10:04:06;24.42;;;20.15;;
13028;SDS011;6581;42.662;23.402;2022-11-13T10:06:59;58.33;;;26.02;;
13028;SDS011;6581;42.662;23.402;2022-11-13T10:13:06;22.35;;;18.65;;
13028;SDS011;6581;42.662;23.402;2022-11-13T10:16:00;23.88;;;19.42;;
13028;SDS011;6581;42.662;23.402;2022-11-13T10:18:50;21.05;;;18.58;;
13028;SDS011;6581;42.662;23.402;2022-11-13T10:21:41;21.65;;;19.17;;
13028;SDS011;6581;42.662;23.402;2022-11-13T10:24:34;22.83;;;19.20;;
13028;SDS011;6581;42.662;23.402;2022-11-13T10:27:27;20.73;;;18.05;;
13028;SDS011;6581;42.662;23.402;2022-11-13T10:33:56;24.08;;;19.27;;
13028;SDS011;6581;42.662;23.402;2022-11-13T10:36:43;39.80;;;35.58;;
13028;SDS011;6581;42.662;23.402;2022-11-13T10:39:41;60.83;;;54.50;;
13028;SDS011;6581;42.662;23.402;2022-11-13T10:42:28;23.65;;;18.95;;
13028;SDS011;6581;42.662;23.402;2022-11-13T10:45:19;22.17;;;19.52;;
13028;SDS011;6581;42.662;23.402;2022-11-13T10:48:17;22.67;;;20.20;;
13028;SDS011;6581;42.662;23.402;2022-11-13T10:51:05;22.63;;;19.60;;
13028;SDS011;6581;42.662;23.402;2022-11-13T10:54:18;20.63;;;18.42;;
13028;SDS011;6581;42.662;23.402;2022-11-13T10:57:16;21.92;;;17.55;;
13028;SDS011;6581;42.662;23.402;2022-11-13T11:00:21;22.75;;;18.63;;
13028;SDS011;6581;42.662;23.402;2022-11-13T11:03:11;20.65;;;18.10;;
13028;SDS011;6581;42.662;23.402;2022-11-13T11:06:01;27.00;;;19.38;;
13028;SDS011;6581;42.662;23.402;2022-11-13T11:08:49;23.30;;;19.52;;
13028;SDS011;6581;42.662;23.402;2022-11-13T11:11:35;27.52;;;20.83;;
13028;SDS011;6581;42.662;23.402;2022-11-13T11:14:39;22.83;;;20.15;;
13028;SDS011;6581;42.662;23.402;2022-11-13T11:17:32;28.77;;;19.42;;
13028;SDS011;6581;42.662;23.402;2022-11-13T11:20:23;23.63;;;19.02;;
13028;SDS011;6581;42.662;23.402;2022-11-13T11:23:18;39.63;;;20.27;;
13028;SDS011;6581;42.662;23.402;2022-11-13T11:26:11;24.60;;;19.35;;
13028;SDS011;6581;42.662;23.402;2022-11-13T11:29:02;22.38;;;19.33;;
13028;SDS011;6581;42.662;23.402;2022-11-13T11:31:58;21.98;;;18.55;;
13028;SDS011;6581;42.662;23.402;2022-11-13T11:34:59;22.67;;;18.92;;
13028;SDS011;6581;42.662;23.402;2022-11-13T11:37:58;20.90;;;17.88;;
13028;SDS011;6581;42.662;23.402;2022-11-13T11:40:50;21.55;;;18.10;;
13028;SDS011;6581;42.662;23.402;2022-11-13T11:43:40;24.92;;;20.05;;
13028;SDS011;6581;42.662;23.402;2022-11-13T11:46:34;23.90;;;20.60;;
13028;SDS011;6581;42.662;23.402;2022-11-13T11:49:20;23.63;;;19.48;;
13028;SDS011;6581;42.662;23.402;2022-11-13T11:52:13;23.23;;;19.23;;
13028;SDS011;6581;42.662;23.402;2022-11-13T11:55:25;22.98;;;19.50;;
13028;SDS011;6581;42.662;23.402;2022-11-13T11:58:32;23.23;;;19.65;;
13028;SDS011;6581;42.662;23.402;2022-11-13T12:01:38;22.40;;;18.77;;
13028;SDS011;6581;42.662;23.402;2022-11-13T12:04:45;21.90;;;18.77;;
13028;SDS011;6581;42.662;23.402;2022-11-13T12:07:40;22.70;;;19.10;;
13028;SDS011;6581;42.662;23.402;2022-11-13T12:10:49;22.38;;;19.58;;
13028;SDS011;6581;42.662;23.402;2022-11-13T12:13:44;21.45;;;18.65;;
13028;SDS011;6581;42.662;23.402;2022-11-13T12:16:39;24.63;;;20.00;;
13028;SDS011;6581;42.662;23.402;2022-11-13T12:19:34;22.90;;;19.77;;
13028;SDS011;6581;42.662;23.402;2022-11-13T12:22:32;24.45;;;20.08;;
13028;SDS011;6581;42.662;23.402;2022-11-13T12:25:28;22.98;;;19.13;;
13028;SDS011;6581;42.662;23.402;2022-11-13T12:28:20;21.70;;;19.08;;
13028;SDS011;6581;42.662;23.402;2022-11-13T12:31:15;23.88;;;19.75;;
13028;SDS011;6581;42.662;23.402;2022-11-13T12:34:18;23.92;;;18.67;;
13028;SDS011;6581;42.662;23.402;2022-11-13T12:37:34;20.92;;;17.77;;
13028;SDS011;6581;42.662;23.402;2022-11-13T12:40:30;20.85;;;18.50;;
13028;SDS011;6581;42.662;23.402;2022-11-13T12:43:33;22.40;;;17.67;;
13028;SDS011;6581;42.662;23.402;2022-11-13T12:46:58;21.50;;;18.50;;
13028;SDS011;6581;42.662;23.402;2022-11-13T12:49:56;22.98;;;19.42;;
13028;SDS011;6581;42.662;23.402;2022-11-13T12:52:43;19.83;;;17.42;;
13028;SDS011;6581;42.662;23.402;2022-11-13T12:55:29;20.05;;;16.90;;
13028;SDS011;6581;42.662;23.402;2022-11-13T12:58:18;20.17;;;16.60;;
13028;SDS011;6581;42.662;23.402;2022-11-13T13:01:12;20.35;;;16.73;;
13028;SDS011;6581;42.662;23.402;2022-11-13T13:07:29;18.65;;;15.75;;
13028;SDS011;6581;42.662;23.402;2022-11-13T13:10:32;17.50;;;15.60;;
13028;SDS011;6581;42.662;23.402;2022-11-13T13:13:28;18.63;;;15.20;;
13028;SDS011;6581;42.662;23.402;2022-11-13T13:16:27;20.23;;;16.75;;
13028;SDS011;6581;42.662;23.402;2022-11-13T13:19:22;20.92;;;17.05;;
13028;SDS011;6581;42.662;23.402;2022-11-13T13:22:25;21.98;;;18.95;;
13028;SDS011;6581;42.662;23.402;2022-11-13T13:25:22;20.90;;;17.40;;
13028;SDS011;6581;42.662;23.402;2022-11-13T13:28:17;22.33;;;18.65;;
13028;SDS011;6581;42.662;23.402;2022-11-13T13:31:12;24.80;;;18.83;;
13028;SDS011;6581;42.662;23.402;2022-11-13T13:34:21;23.27;;;19.13;;
13028;SDS011;6581;42.662;23.402;2022-11-13T13:37:19;23.02;;;19.65;;
13028;SDS011;6581;42.662;23.402;2022-11-13T13:40:17;23.73;;;19.95;;
13028;SDS011;6581;42.662;23.402;2022-11-13T13:43:26;22.83;;;19.77;;
13028;SDS011;6581;42.662;23.402;2022-11-13T13:46:18;22.95;;;19.33;;
13028;SDS011;6581;42.662;23.402;2022-11-13T13:49:10;21.90;;;18.60;;
13028;SDS011;6581;42.662;23.402;2022-11-13T13:51:59;24.83;;;19.27;;
13028;SDS011;6581;42.662;23.402;2022-11-13T13:54:45;25.40;;;20.30;;
13028;SDS011;6581;42.662;23.402;2022-11-13T13:57:33;25.50;;;20.83;;
13028;SDS011;6581;42.662;23.402;2022-11-13T14:00:25;26.27;;;20.80;;
13028;SDS011;6581;42.662;23.402;2022-11-13T14:03:15;25.13;;;20.90;;
13028;SDS011;6581;42.662;23.402;2022-11-13T14:06:07;28.05;;;21.45;;
13028;SDS011;6581;42.662;23.402;2022-11-13T14:08:53;25.75;;;21.27;;
13028;SDS011;6581;42.662;23.402;2022-11-13T14:11:39;24.88;;;21.23;;
13028;SDS011;6581;42.662;23.402;2022-11-13T14:14:26;23.92;;;19.95;;
13028;SDS011;6581;42.662;23.402;2022-11-13T14:17:11;25.08;;;19.80;;
13028;SDS011;6581;42.662;23.402;2022-11-13T14:20:10;26.35;;;20.42;;
13028;SDS011;6581;42.662;23.402;2022-11-13T14:22:56;26.15;;;21.25;;
13028;SDS011;6581;42.662;23.402;2022-11-13T14:25:42;30.10;;;21.55;;
13028;SDS011;6581;42.662;23.402;2022-11-13T14:28:29;28.45;;;21.73;;
13028;SDS011;6581;42.662;23.402;2022-11-13T14:31:18;27.95;;;22.23;;
13028;SDS011;6581;42.662;23.402;2022-11-13T14:34:08;28.15;;;22.50;;
13028;SDS011;6581;42.662;23.402;2022-11-13T14:36:55;25.58;;;21.45;;
13028;SDS011;6581;42.662;23.402;2022-11-13T14:39:49;30.38;;;23.15;;
13028;SDS011;6581;42.662;23.402;2022-11-13T14:42:37;33.60;;;23.85;;
13028;SDS011;6581;42.662;23.402;2022-11-13T14:45:29;34.45;;;25.35;;
13028;SDS011;6581;42.662;23.402;2022-11-13T14:48:18;35.10;;;25.05;;
13028;SDS011;6581;42.662;23.402;2022-11-13T14:51:06;34.25;;;24.88;;
13028;SDS011;6581;42.662;23.402;2022-11-13T14:57:13;32.85;;;25.38;;
13028;SDS011;6581;42.662;23.402;2022-11-13T15:00:25;35.08;;;26.33;;
13028;SDS011;6581;42.662;23.402;2022-11-13T15:03:14;34.17;;;24.80;;
13028;SDS011;6581;42.662;23.402;2022-11-13T15:06:00;35.88;;;24.42;;
13028;SDS011;6581;42.662;23.402;2022-11-13T15:08:47;111.28;;;100.88;;
13028;SDS011;6581;42.662;23.402;2022-11-13T15:11:33;35.45;;;24.92;;
13028;SDS011;6581;42.662;23.402;2022-11-13T15:14:24;33.33;;;24.83;;
13028;SDS011;6581;42.662;23.402;2022-11-13T15:17:13;32.30;;;23.20;;
13028;SDS011;6581;42.662;23.402;2022-11-13T15:20:05;31.33;;;22.90;;
13028;SDS011;6581;42.662;23.402;2022-11-13T15:22:59;33.30;;;23.35;;
13028;SDS011;6581;42.662;23.402;2022-11-13T15:25:45;31.50;;;23.77;;
13028;SDS011;6581;42.662;23.402;2022-11-13T15:28:31;33.03;;;24.63;;
13028;SDS011;6581;42.662;23.402;2022-11-13T15:31:17;33.70;;;25.10;;
13028;SDS011;6581;42.662;23.402;2022-11-13T15:34:04;30.63;;;23.08;;
13028;SDS011;6581;42.662;23.402;2022-11-13T15:36:50;32.55;;;24.05;;
13028;SDS011;6581;42.662;23.402;2022-11-13T15:39:38;34.42;;;24.52;;
13028;SDS011;6581;42.662;23.402;2022-11-13T15:42:25;33.85;;;24.08;;
13028;SDS011;6581;42.662;23.402;2022-11-13T15:45:14;35.63;;;25.55;;
13028;SDS011;6581;42.662;23.402;2022-11-13T15:48:01;39.20;;;26.83;;
13028;SDS011;6581;42.662;23.402;2022-11-13T15:50:47;36.67;;;26.43;;
13028;SDS011;6581;42.662;23.402;2022-11-13T15:53:33;55.20;;;42.40;;
13028;SDS011;6581;42.662;23.402;2022-11-13T15:56:20;63.10;;;47.60;;
13028;SDS011;6581;42.662;23.402;2022-11-13T15:59:08;52.10;;;39.40;;
13028;SDS011;6581;42.662;23.402;2022-11-13T16:01:56;50.67;;;34.93;;
13028;SDS011;6581;42.662;23.402;2022-11-13T16:05:07;51.60;;;35.80;;
13028;SDS011;6581;42.662;23.402;2022-11-13T16:07:54;55.30;;;37.75;;
13028;SDS011;6581;42.662;23.402;2022-11-13T16:10:40;46.87;;;32.90;;
13028;SDS011;6581;42.662;23.402;2022-11-13T16:13:27;50.37;;;33.23;;
13028;SDS011;6581;42.662;23.402;2022-11-13T16:16:13;55.58;;;41.53;;
13028;SDS011;6581;42.662;23.402;2022-11-13T16:19:00;49.37;;;32.77;;
13028;SDS011;6581;42.662;23.402;2022-11-13T16:21:47;44.93;;;30.80;;
13028;SDS011;6581;42.662;23.402;2022-11-13T16:24:32;44.13;;;29.70;;
13028;SDS011;6581;42.662;23.402;2022-11-13T16:27:19;43.97;;;29.90;;
13028;SDS011;6581;42.662;23.402;2022-11-13T16:30:13;40.50;;;29.13;;
13028;SDS011;6581;42.662;23.402;2022-11-13T16:33:00;43.73;;;29.63;;
13028;SDS011;6581;42.662;23.402;2022-11-13T16:35:49;40.10;;;28.40;;
13028;SDS011;6581;42.662;23.402;2022-11-13T16:38:34;39.57;;;26.00;;
13028;SDS011;6581;42.662;23.402;2022-11-13T16:41:20;36.40;;;24.97;;
13028;SDS011;6581;42.662;23.402;2022-11-13T16:44:07;37.33;;;25.90;;
13028;SDS011;6581;42.662;23.402;2022-11-13T16:46:54;36.70;;;25.40;;
13028;SDS011;6581;42.662;23.402;2022-11-13T16:49:40;34.83;;;24.20;;
13028;SDS011;6581;42.662;23.402;2022-11-13T16:52:26;35.50;;;24.67;;
13028;SDS011;6581;42.662;23.402;2022-11-13T16:55:12;36.47;;;24.70;;